Time;durP1;ratioP1;P1;durP2;ratioP2;P2;SDS_P1;SDS_P2;PMS_P1;PMS_P2;Temp;Humidity;BMP_temperature;BMP_pressure;BME280_temperature;BME280_humidity;BME280_pressure;Samples;Min_cycle;Max_cycle;Signal;HPM_P1;HPM_P2
2022/06/23 03:51:01;;;;;;;11.25;7.75;;;;;;;17.76;77.11;98552.97;2619066;46;20019;-65
2022/06/23 03:53:35;;;;;;;11.07;6.97;;;;;;;17.77;77.34;98559.13;2618643;54;20085;-64
2022/06/23 03:56:05;;;;;;;;;;;;;;;17.85;77.01;98560.59;2618927;54;20026;-64
2022/06/23 03:58:43;;;;;;;15.10;6.97;;;;;;;17.84;76.81;98557.09;2619069;39;19998;-63
2022/06/23 04:01:20;;;;;;;10.60;7.07;;;;;;;17.80;76.70;98559.47;2618672;47;20574;-63
2022/06/23 04:03:57;;;;;;;11.27;7.72;;;;;;;17.78;77.29;98558.06;2618263;54;20019;-63
2022/06/23 04:06:41;;;;;;;11.27;7.32;;;;;;;17.88;77.10;98554.72;2618827;54;20019;-63
2022/06/23 04:09:18;;;;;;;11.30;6.65;;;;;;;17.93;76.61;98562.84;2618782;54;20038;-63
2022/06/23 04:11:55;;;;;;;8.93;7.03;;;;;;;17.98;76.40;98558.38;2618458;54;20038;-63
2022/06/23 04:14:34;;;;;;;12.27;7.07;;;;;;;17.96;76.42;98560.50;2618534;54;20037;-64
2022/06/23 04:17:13;;;;;;;9.60;6.82;;;;;;;18.00;76.64;98564.28;2618769;54;20034;-63
2022/06/23 04:19:46;;;;;;;14.35;8.10;;;;;;;18.10;76.59;98558.25;2618688;54;20117;-63
2022/06/23 04:22:26;;;;;;;9.07;7.13;;;;;;;18.14;75.88;98559.38;2618281;54;20035;-62
2022/06/23 04:25:01;;;;;;;9.60;7.38;;;;;;;18.23;75.80;98555.22;2617950;54;20028;-63
2022/06/23 04:27:39;;;;;;;12.90;6.85;;;;;;;18.30;75.90;98557.72;2618463;54;20038;-64
2022/06/23 04:30:09;;;;;;;10.00;6.60;;;;;;;18.43;75.76;98556.53;2618451;54;20037;-63
2022/06/23 04:32:39;;;;;;;13.18;6.80;;;;;;;18.56;75.32;98561.50;2618905;46;20505;-63
2022/06/23 04:35:18;;;;;;;12.10;7.05;;;;;;;18.61;74.37;98558.06;2618206;54;20026;-64
2022/06/23 04:37:56;;;;;;;7.30;6.10;;;;;;;18.68;74.20;98569.41;2620796;54;20030;-64
2022/06/23 04:40:30;;;;;;;10.60;6.90;;;;;;;18.68;74.29;98564.06;2619313;39;20433;-64
2022/06/23 04:43:06;;;;;;;8.48;7.22;;;;;;;18.72;74.11;98571.34;2618526;54;20572;-64
2022/06/23 04:45:43;;;;;;;9.68;6.57;;;;;;;18.84;73.77;98565.88;2618303;54;20030;-64
2022/06/23 04:48:20;;;;;;;10.50;7.57;;;;;;;18.89;73.06;98570.47;2618174;47;20023;-65
2022/06/23 04:50:57;;;;;;;13.90;7.68;;;;;;;18.78;73.14;98565.00;2618626;54;20569;-65
2022/06/23 04:53:47;;;;;;;10.85;6.88;;;;;;;18.86;73.01;98566.44;2620388;39;20453;-66
2022/06/23 04:56:26;;;;;;;11.65;6.75;;;;;;;18.93;73.41;98572.38;2621024;54;20042;-64
2022/06/23 04:59:02;;;;;;;10.88;6.88;;;;;;;19.06;72.48;98571.16;2620955;54;20034;-63
2022/06/23 05:01:42;;;;;;;11.65;6.40;;;;;;;19.05;72.51;98566.88;2620015;54;20046;-63
2022/06/23 05:04:19;;;;;;;8.32;6.38;;;;;;;19.10;72.39;98566.09;2619328;54;20030;-63
2022/06/23 05:06:53;;;;;;;7.47;6.78;;;;;;;19.21;72.13;98557.91;2619135;54;20085;-63
2022/06/23 05:09:28;;;;;;;;;;;;;;;19.36;72.31;98564.50;2619229;54;20030;-63
2022/06/23 05:12:03;;;;;;;10.23;6.70;;;;;;;19.47;71.33;98561.63;2618465;54;19945;-65
2022/06/23 05:14:40;;;;;;;8.35;6.90;;;;;;;19.53;71.13;98562.47;2618198;47;20033;-63
2022/06/23 05:17:17;;;;;;;10.25;6.93;;;;;;;19.47;71.04;98566.16;2618814;54;20030;-63
2022/06/23 05:19:49;;;;;;;16.33;7.05;;;;;;;19.47;71.39;98566.16;2618332;54;20546;-63
2022/06/23 05:22:25;;;;;;;11.73;6.53;;;;;;;19.50;71.81;98560.31;2618068;54;20051;-63
2022/06/23 05:25:00;;;;;;;10.85;6.60;;;;;;;19.64;71.11;98566.88;2618244;54;20046;-63
2022/06/23 05:27:34;;;;;;;9.57;7.18;;;;;;;19.75;70.72;98573.13;2618045;54;20541;-64
2022/06/23 05:30:20;;;;;;;15.00;7.65;;;;;;;19.76;70.95;98564.03;2618113;54;20031;-64
2022/06/23 05:32:53;;;;;;;11.57;7.57;;;;;;;19.86;71.19;98563.28;2618166;54;20042;-64
2022/06/23 05:35:27;;;;;;;15.07;7.43;;;;;;;19.86;71.26;98579.38;2618876;54;20022;-62
2022/06/23 05:38:01;;;;;;;13.98;7.65;;;;;;;19.99;71.51;98576.22;2618503;47;20027;-62
2022/06/23 05:40:39;;;;;;;9.23;7.07;;;;;;;20.11;70.96;98576.03;2618958;54;20101;-64
2022/06/23 05:43:13;;;;;;;17.70;8.05;;;;;;;20.24;70.56;98567.50;2618697;54;20037;-63
2022/06/23 05:45:47;;;;;;;10.15;7.00;;;;;;;20.32;70.00;98568.88;2619017;54;20037;-63
2022/06/23 05:48:21;;;;;;;16.50;7.95;;;;;;;20.38;70.00;98578.59;2619392;54;20054;-64
2022/06/23 05:50:56;;;;;;;12.63;7.25;;;;;;;20.46;69.73;98586.13;2619148;54;20030;-65
2022/06/23 05:53:31;;;;;;;14.27;9.25;;;;;;;20.60;69.35;98583.81;2618603;54;20135;-65
2022/06/23 05:56:11;;;;;;;14.82;8.60;;;;;;;20.71;69.21;98588.94;2618726;54;20041;-64
2022/06/23 05:58:49;;;;;;;10.18;7.50;;;;;;;20.90;68.38;98594.66;2619416;54;20031;-64
2022/06/23 06:01:26;;;;;;;13.40;7.15;;;;;;;20.90;68.04;98589.28;2618550;47;20034;-64
2022/06/23 06:04:00;;;;;;;13.25;7.28;;;;;;;20.93;67.67;98588.72;2618908;54;20029;-65
2022/06/23 06:06:30;;;;;;;9.13;6.82;;;;;;;20.95;67.85;98591.16;2618874;54;20037;-64
2022/06/23 06:11:52;;;;;;;10.98;7.18;;;;;;;21.11;67.57;98595.50;2618966;54;20548;-64
2022/06/23 06:14:28;;;;;;;10.75;7.30;;;;;;;21.14;66.79;98584.19;2619143;54;20086;-65
2022/06/23 06:16:59;;;;;;;11.77;6.78;;;;;;;21.02;67.62;98576.41;2619124;54;20033;-65
2022/06/23 06:19:32;;;;;;;11.70;6.75;;;;;;;21.18;67.41;98581.78;2618813;39;20441;-64
2022/06/23 06:22:23;;;;;;;11.10;6.93;;;;;;;21.24;66.96;98584.22;2617879;47;20034;-63
2022/06/23 06:24:56;;;;;;;12.30;6.90;;;;;;;21.34;67.61;98588.03;2618849;54;20044;-65
2022/06/23 06:27:28;;;;;;;10.90;7.40;;;;;;;21.42;67.11;98585.59;2619201;39;20414;-64
2022/06/23 06:29:58;;;;;;;11.52;6.97;;;;;;;21.50;66.94;98586.97;2619006;54;20571;-65
2022/06/23 06:32:36;;;;;;;10.80;6.60;;;;;;;21.63;66.60;98578.34;2618235;47;20034;-64
2022/06/23 06:35:17;;;;;;;17.23;6.97;;;;;;;21.68;66.27;98581.06;2619406;39;20441;-64
2022/06/23 06:37:51;;;;;;;11.52;6.50;;;;;;;21.79;66.58;98579.13;2618580;47;20030;-63
2022/06/23 06:40:22;;;;;;;12.60;7.45;;;;;;;21.85;65.80;98582.66;2618953;54;20122;-64
2022/06/23 06:43:00;;;;;;;11.02;7.05;;;;;;;21.89;65.94;98586.41;2618742;54;20034;-64
2022/06/23 06:45:36;;;;;;;13.80;6.38;;;;;;;21.94;66.21;98578.31;2618829;54;20039;-65
2022/06/23 06:48:12;;;;;;;11.30;6.45;;;;;;;22.12;65.35;98574.22;2618592;54;20599;-64
2022/06/23 06:50:47;;;;;;;12.45;6.30;;;;;;;22.16;65.94;98570.75;2618727;54;20046;-64
2022/06/23 06:53:20;;;;;;;11.20;6.50;;;;;;;22.14;65.82;98577.50;2618060;47;20022;-63
2022/06/23 06:55:52;;;;;;;;;;;;;;;22.28;65.82;98569.66;2619013;54;20039;-64
2022/06/23 06:58:30;;;;;;;22.05;7.68;;;;;;;22.36;65.95;98569.88;2618777;54;19946;-64
2022/06/23 07:01:04;;;;;;;11.02;6.18;;;;;;;22.49;64.46;98568.47;2617763;46;20564;-65
2022/06/23 07:03:37;;;;;;;12.50;6.68;;;;;;;22.38;65.28;98569.63;2618735;54;20038;-64
2022/06/23 07:06:11;;;;;;;10.38;6.25;;;;;;;22.32;65.36;98568.81;2618760;54;20083;-64
2022/06/23 07:08:46;;;;;;;11.15;5.90;;;;;;;22.40;65.26;98570.13;2618080;54;20022;-65
2022/06/23 07:11:22;;;;;;;10.98;5.80;;;;;;;22.52;65.09;98565.25;2618696;54;20553;-64
2022/06/23 07:13:59;;;;;;;11.40;4.75;;;;;;;22.63;64.37;98568.72;2618699;54;20061;-64
2022/06/23 07:16:35;;;;;;;11.32;4.72;;;;;;;22.77;63.73;98563.50;2618840;54;20046;-64
2022/06/23 07:19:13;;;;;;;13.75;4.53;;;;;;;22.91;62.75;98557.25;2618211;54;20526;-63
2022/06/23 07:21:46;;;;;;;9.98;5.18;;;;;;;23.03;62.75;98567.72;2618283;54;20042;-65
2022/06/23 07:24:23;;;;;;;10.52;4.50;;;;;;;23.13;62.57;98561.44;2618740;54;20037;-64
2022/06/23 07:27:00;;;;;;;9.75;4.35;;;;;;;23.23;62.06;98572.16;2618095;47;20034;-64
2022/06/23 07:29:41;;;;;;;12.90;4.75;;;;;;;23.33;62.01;98576.66;2617883;54;20026;-64
2022/06/23 07:32:19;;;;;;;8.32;3.80;;;;;;;23.46;61.39;98581.41;2618625;54;20035;-65
2022/06/23 07:34:55;;;;;;;8.23;4.00;;;;;;;23.57;60.70;98582.94;2618846;47;20030;-65
2022/06/23 07:37:31;;;;;;;9.65;4.30;;;;;;;23.48;60.44;98577.34;2618793;54;20648;-65
2022/06/23 07:40:05;;;;;;;11.98;3.97;;;;;;;23.50;60.29;98568.97;2618984;54;20061;-64
2022/06/23 07:42:46;;;;;;;12.95;4.22;;;;;;;23.48;60.00;98579.25;2618842;54;20535;-64
2022/06/23 07:45:25;;;;;;;13.25;4.22;;;;;;;23.44;60.03;98570.09;2618750;54;20027;-64
2022/06/23 07:47:55;;;;;;;9.18;4.68;;;;;;;23.48;60.34;98571.16;2618837;47;20023;-65
2022/06/23 07:50:25;;;;;;;11.02;4.50;;;;;;;23.57;59.76;98566.75;2620284;54;20022;-63
2022/06/23 07:52:55;;;;;;;8.25;3.92;;;;;;;23.53;59.97;98565.72;2619664;54;20061;-64
2022/06/23 07:55:28;;;;;;;11.80;4.70;;;;;;;23.60;59.06;98574.28;2618331;47;20027;-64
2022/06/23 07:58:16;;;;;;;11.52;4.07;;;;;;;23.71;59.16;98575.81;2618774;54;20034;-64
2022/06/23 08:00:51;;;;;;;11.00;4.45;;;;;;;23.85;59.07;98572.47;2619015;54;20038;-64
2022/06/23 08:03:23;;;;;;;13.32;5.05;;;;;;;;;;2618885;54;20030;-64
2022/06/23 08:05:56;;;;;;;9.63;3.97;;;;;;;24.11;58.54;98559.50;2618820;54;20037;-64
2022/06/23 08:08:31;;;;;;;10.00;4.55;;;;;;;24.26;58.54;98553.13;2619104;54;20541;-64
2022/06/23 08:13:50;;;;;;;8.90;4.15;;;;;;;24.23;57.43;98555.31;2617571;47;20039;-65
2022/06/23 11:56:32;;;;;;;7.72;3.05;;;;;;;30.38;36.77;98346.88;2604583;46;20030;-62
2022/06/23 11:59:16;;;;;;;8.10;2.97;;;;;;;30.37;36.74;98346.06;2619143;54;20034;-62
2022/06/23 12:01:46;;;;;;;8.25;3.25;;;;;;;30.45;36.42;98338.94;2619231;54;20545;-63
2022/06/23 12:04:35;;;;;;;6.75;3.08;;;;;;;30.65;36.33;98337.31;2623347;39;20457;-63
2022/06/23 12:07:28;;;;;;;10.00;2.95;;;;;;;30.91;35.70;98334.38;2622599;54;20054;-62
2022/06/23 12:10:05;;;;;;;8.47;2.80;;;;;;;31.07;35.29;98330.63;2622804;54;20026;-63
2022/06/23 12:12:38;;;;;;;6.47;3.00;;;;;;;31.09;35.38;98328.34;2621706;47;20050;-64
2022/06/23 12:15:09;;;;;;;9.10;2.85;;;;;;;31.11;35.32;98325.28;2621930;54;20577;-63
2022/06/23 12:17:46;;;;;;;8.75;3.78;;;;;;;31.23;35.26;98321.75;2621781;54;20522;-64
2022/06/23 12:20:23;;;;;;;8.35;2.97;;;;;;;31.27;35.16;98318.03;2621170;54;20026;-63
2022/06/23 12:23:05;;;;;;;13.57;3.20;;;;;;;31.45;34.46;98317.81;2621662;39;20433;-64
2022/06/23 12:25:43;;;;;;;10.57;2.95;;;;;;;31.46;33.97;98311.22;2621462;54;20129;-62
2022/06/23 12:28:27;;;;;;;4.55;2.55;;;;;;;31.48;33.92;98307.00;2622091;54;20058;-63
2022/06/23 12:31:02;;;;;;;6.97;2.42;;;;;;;31.58;34.03;98306.53;2620494;54;20103;-63
2022/06/23 12:33:39;;;;;;;5.65;2.70;;;;;;;31.75;33.33;98296.50;2619283;54;20030;-65
2022/06/23 12:36:13;;;;;;;9.98;3.00;;;;;;;31.80;32.87;98288.88;2621623;39;20470;-62
2022/06/23 12:38:49;;;;;;;7.72;2.33;;;;;;;31.68;32.66;98288.06;2618474;47;20550;-64
2022/06/23 12:41:26;;;;;;;9.07;3.70;;;;;;;31.55;32.79;98290.81;2620262;39;20426;-64
2022/06/23 12:44:03;;;;;;;12.40;3.30;;;;;;;31.48;32.82;98290.63;2618907;54;20037;-63
2022/06/23 12:46:45;;;;;;;7.07;2.38;;;;;;;31.27;32.54;98289.91;2618494;54;20054;-62
2022/06/23 12:49:44;;;;;;;7.30;2.28;;;;;;;30.99;32.67;98281.63;2619401;39;20446;-61
2022/06/23 12:52:40;;;;;;;11.60;2.88;;;;;;;30.91;33.23;98275.13;2618270;54;20042;-62
2022/06/23 12:55:38;;;;;;;9.13;2.72;;;;;;;30.66;33.68;98265.25;2618632;54;20034;-62
2022/06/23 12:58:28;;;;;;;8.68;3.22;;;;;;;30.80;33.92;98265.78;2618510;39;20445;-64
2022/06/23 13:01:12;;;;;;;8.25;2.80;;;;;;;31.01;32.63;98262.94;2618829;54;20034;-62
2022/06/23 13:03:56;;;;;;;8.73;2.80;;;;;;;31.05;32.56;98256.47;2617956;47;20556;-61
2022/06/23 13:06:38;;;;;;;8.25;2.50;;;;;;;31.40;32.02;98263.44;2619065;54;20034;-62
2022/06/23 13:09:21;;;;;;;8.85;2.90;;;;;;;31.50;32.08;98257.50;2619006;54;20035;-63
2022/06/23 13:12:01;;;;;;;8.18;2.80;;;;;;;31.64;31.56;98252.47;2618987;54;20027;-63
2022/06/23 13:14:36;;;;;;;6.60;2.50;;;;;;;31.77;31.23;98248.56;2622411;54;20026;-61
2022/06/23 13:17:21;;;;;;;6.93;2.47;;;;;;;31.87;31.55;98241.03;2621692;54;20050;-61
2022/06/23 13:19:56;;;;;;;6.53;2.45;;;;;;;31.97;31.17;98237.84;2621803;54;20033;-61
2022/06/23 13:22:47;;;;;;;4.88;2.28;;;;;;;31.99;30.79;98225.38;2621237;54;20042;-63
2022/06/23 13:25:20;;;;;;;7.07;2.40;;;;;;;31.97;30.46;98214.03;2621452;54;20039;-63
2022/06/23 13:27:55;;;;;;;6.93;2.40;;;;;;;32.09;31.08;98221.38;2621337;54;20023;-63
2022/06/23 13:30:47;;;;;;;7.85;2.60;;;;;;;32.11;30.57;98221.81;2621989;54;20026;-63
2022/06/23 13:33:28;;;;;;;9.27;2.80;;;;;;;32.05;30.01;98217.75;2621056;54;20046;-63
2022/06/23 13:36:03;;;;;;;6.40;2.47;;;;;;;31.96;29.93;98215.16;2621078;54;20062;-63
2022/06/23 13:38:45;;;;;;;7.65;2.58;;;;;;;31.72;30.12;98210.56;2621647;54;20045;-63
2022/06/23 13:41:21;;;;;;;6.15;2.50;;;;;;;31.75;30.10;98212.56;2621359;47;20030;-63
2022/06/23 13:43:59;;;;;;;5.55;2.35;;;;;;;32.05;29.71;98215.81;2621338;47;20122;-63
2022/06/23 13:46:35;;;;;;;7.75;2.75;;;;;;;32.22;29.63;98209.22;2621489;54;20566;-64
2022/06/23 13:49:16;;;;;;;8.80;2.50;;;;;;;32.35;30.08;98201.75;2621078;54;20039;-64
2022/06/23 13:51:54;;;;;;;7.68;2.45;;;;;;;32.55;28.84;98198.00;2620629;47;20038;-63
2022/06/23 13:54:35;;;;;;;8.25;3.00;;;;;;;32.64;29.24;98199.78;2621819;54;20042;-62
2022/06/23 13:57:15;;;;;;;11.90;3.53;;;;;;;32.85;29.19;98197.56;2621482;54;20026;-63
2022/06/23 13:59:54;;;;;;;10.75;3.25;;;;;;;33.08;28.95;98197.75;2621655;54;20041;-64
2022/06/23 14:02:36;;;;;;;6.13;2.60;;;;;;;33.18;28.39;98190.91;2620305;54;20042;-64
2022/06/23 14:05:18;;;;;;;8.05;2.58;;;;;;;32.95;28.08;98191.59;2620280;54;20050;-63
2022/06/23 14:07:55;;;;;;;11.98;2.97;;;;;;;32.89;27.88;98190.22;2619933;54;20049;-64
2022/06/23 14:10:33;;;;;;;10.10;2.70;;;;;;;33.10;28.04;98184.47;2619523;54;20158;-64
2022/06/23 14:13:19;;;;;;;8.98;2.75;;;;;;;33.31;26.97;98186.09;2618974;54;20077;-63
2022/06/23 14:15:58;;;;;;;7.65;2.03;;;;;;;33.09;27.88;98176.63;2619401;54;20038;-63
2022/06/23 14:18:37;;;;;;;8.98;2.35;;;;;;;32.92;28.07;98181.34;2618493;51;20840;-63
2022/06/23 14:21:21;;;;;;;9.45;2.97;;;;;;;32.65;28.01;98176.72;2619252;54;20538;-63
2022/06/23 14:24:04;;;;;;;6.65;2.45;;;;;;;32.39;28.78;98174.53;2618226;47;20034;-62
2022/06/23 14:26:42;;;;;;;8.95;2.50;;;;;;;32.27;28.77;98167.94;2618690;54;20022;-64
2022/06/23 14:29:19;;;;;;;7.80;2.42;;;;;;;32.46;29.35;98163.78;2618885;54;20029;-62
2022/06/23 14:31:56;;;;;;;9.90;3.00;;;;;;;32.60;28.99;98163.31;2618643;54;20042;-64
2022/06/23 14:34:32;;;;;;;8.13;2.25;;;;;;;32.87;28.52;98164.38;2618277;54;20143;-63
2022/06/23 14:37:13;;;;;;;7.35;2.33;;;;;;;33.03;28.26;98163.22;2618791;54;20564;-63
2022/06/23 14:39:47;;;;;;;11.70;3.17;;;;;;;33.08;27.98;98153.94;2619192;39;20440;-63
2022/06/23 14:42:49;;;;;;;7.10;2.30;;;;;;;33.38;27.86;98145.16;2618470;54;20034;-63
2022/06/23 14:45:42;;;;;;;6.07;2.40;;;;;;;33.26;27.88;98143.34;2618779;54;20086;-63
2022/06/23 14:48:23;;;;;;;;;;;;;;;33.16;27.49;98141.97;2618808;54;20545;-62
2022/06/23 14:51:01;;;;;;;9.13;2.35;;;;;;;33.13;26.93;98144.63;2618711;54;19947;-63
2022/06/23 14:53:43;;;;;;;11.45;3.03;;;;;;;32.99;26.25;98134.19;2618621;54;20034;-64
2022/06/23 14:56:24;;;;;;;6.20;2.40;;;;;;;33.20;26.52;98137.38;2618533;54;20029;-63
2022/06/23 14:58:58;;;;;;;9.75;4.07;;;;;;;33.45;26.52;98137.94;2618825;54;20034;-63
2022/06/23 15:01:36;;;;;;;14.18;7.45;;;;;;;33.69;26.34;98138.81;2618531;54;20034;-63
2022/06/23 15:04:20;;;;;;;10.90;2.40;;;;;;;33.67;26.47;98130.91;2618609;54;20034;-64
2022/06/23 15:06:56;;;;;;;10.23;2.15;;;;;;;33.78;26.14;98133.88;2619043;54;20038;-63
2022/06/23 15:09:41;;;;;;;10.85;2.75;;;;;;;33.90;25.62;98132.94;2618533;54;20026;-62
2022/06/23 15:12:20;;;;;;;12.18;2.38;;;;;;;33.97;25.08;98135.84;2619918;54;20561;-63
2022/06/23 15:15:00;;;;;;;15.68;2.45;;;;;;;33.91;25.06;98127.06;2618759;54;20039;-63
2022/06/23 15:17:38;;;;;;;6.00;2.15;;;;;;;33.93;24.88;98132.22;2619252;54;20585;-62
2022/06/23 15:20:18;;;;;;;9.57;2.28;;;;;;;33.92;25.11;98127.88;2618262;47;20065;-63
2022/06/23 15:25:47;;;;;;;5.78;2.00;;;;;;;33.79;24.52;98113.53;2618633;54;20039;-63
2022/06/23 15:28:25;;;;;;;5.68;2.15;;;;;;;33.74;25.07;98117.38;2618580;54;20025;-63
2022/06/23 15:31:04;;;;;;;6.63;2.25;;;;;;;33.71;24.97;98120.81;2618736;54;20030;-63
2022/06/23 15:33:46;;;;;;;6.95;2.40;;;;;;;33.41;25.14;98120.59;2618359;54;20026;-63
2022/06/23 15:36:22;;;;;;;;;;;;;;;33.31;25.75;98115.69;2618708;54;20546;-62
2022/06/23 15:38:58;;;;;;;10.18;2.25;;;;;;;33.11;25.56;98114.88;2618558;54;19938;-63
2022/06/23 15:41:42;;;;;;;6.93;2.25;;;;;;;32.56;26.60;98108.50;2618667;54;20049;-62
2022/06/23 15:44:21;;;;;;;8.93;2.45;;;;;;;32.38;27.38;98113.53;2618568;54;20038;-64
2022/06/23 15:46:59;;;;;;;6.00;2.28;;;;;;;32.16;27.88;98114.94;2618592;54;20038;-62
2022/06/23 15:49:36;;;;;;;8.35;2.45;;;;;;;32.02;28.18;98107.16;2618529;54;20042;-63
2022/06/23 15:52:10;;;;;;;5.63;2.90;;;;;;;32.10;28.69;98101.88;2618571;54;20027;-64
2022/06/23 15:54:46;;;;;;;10.80;2.60;;;;;;;32.43;28.41;98098.81;2618602;54;20057;-63
2022/06/23 15:57:24;;;;;;;11.93;3.15;;;;;;;32.76;28.47;98096.47;2618389;54;20537;-64
2022/06/23 16:00:00;;;;;;;10.15;2.40;;;;;;;33.09;27.96;98100.75;2618876;54;20556;-63
2022/06/23 16:02:44;;;;;;;9.40;2.67;;;;;;;33.32;28.04;98091.84;2618809;54;20042;-62
2022/06/23 16:05:17;;;;;;;8.73;2.58;;;;;;;33.47;27.78;98088.25;2618679;54;20050;-63
2022/06/23 16:07:55;;;;;;;7.00;2.70;;;;;;;33.13;28.03;98078.94;2619200;54;20038;-64
2022/06/23 16:10:36;;;;;;;6.47;2.70;;;;;;;32.81;28.96;98078.97;2619745;39;20462;-63
2022/06/23 16:13:18;;;;;;;10.50;2.92;;;;;;;33.15;28.80;98073.88;2619864;54;20038;-63
2022/06/23 16:15:53;;;;;;;10.63;3.65;;;;;;;33.31;28.32;98073.81;2620493;54;20034;-64
2022/06/23 16:18:30;;;;;;;9.80;3.85;;;;;;;33.17;28.40;98064.16;2620131;54;20553;-62
2022/06/23 16:21:03;;;;;;;7.22;2.47;;;;;;;33.03;28.78;98061.91;2619722;54;20035;-63
2022/06/23 16:23:52;;;;;;;9.68;2.60;;;;;;;33.26;28.46;98061.19;2618417;54;20052;-65
2022/06/23 16:26:39;;;;;;;7.55;2.25;;;;;;;33.46;28.04;98064.75;2618591;54;20038;-62
2022/06/23 16:29:14;;;;;;;8.30;2.30;;;;;;;33.14;28.60;98053.91;2618475;54;20045;-63
2022/06/23 16:31:57;;;;;;;6.05;2.53;;;;;;;33.41;28.23;98063.06;2618540;54;20037;-63
2022/06/23 16:34:31;;;;;;;;;;;;;;;33.34;28.15;98056.66;2618686;54;20027;-61
2022/06/23 16:37:10;;;;;;;8.88;3.10;;;;;;;33.12;28.22;98050.75;2619254;39;20330;-62
2022/06/23 16:39:44;;;;;;;11.57;2.95;;;;;;;33.29;28.42;98050.31;2617946;47;20038;-62
2022/06/23 16:42:29;;;;;;;9.73;3.20;;;;;;;33.53;27.91;98052.00;2618193;54;20973;-63
2022/06/23 16:45:12;;;;;;;10.73;3.17;;;;;;;33.51;28.09;98050.75;2618572;54;20061;-62
2022/06/23 16:47:50;;;;;;;8.98;3.80;;;;;;;33.72;27.88;98048.44;2619000;39;20450;-63
2022/06/23 16:50:28;;;;;;;7.00;3.13;;;;;;;33.97;27.73;98046.16;2618386;54;20082;-63
2022/06/23 16:53:07;;;;;;;7.32;3.20;;;;;;;34.07;27.48;98041.22;2617890;54;20042;-64
2022/06/23 16:55:50;;;;;;;9.35;3.28;;;;;;;34.12;27.69;98044.41;2618195;54;20049;-64
2022/06/23 16:58:35;;;;;;;6.50;2.63;;;;;;;34.46;27.13;98039.88;2618318;54;20030;-64
2022/06/23 17:01:14;;;;;;;11.00;3.53;;;;;;;34.28;26.95;98038.00;2618265;54;20042;-63
2022/06/23 17:03:51;;;;;;;8.68;2.50;;;;;;;33.82;27.84;98036.06;2618303;54;20061;-66
2022/06/23 17:06:31;;;;;;;7.65;2.80;;;;;;;34.41;27.44;98029.19;2618315;54;20037;-64
2022/06/23 17:09:07;;;;;;;10.77;3.03;;;;;;;34.09;27.27;98030.66;2618222;54;20042;-63
2022/06/23 17:11:40;;;;;;;9.23;3.28;;;;;;;34.01;27.56;98030.56;2618095;54;20038;-63
2022/06/23 17:14:16;;;;;;;7.30;2.53;;;;;;;33.71;27.54;98026.84;2618609;39;20450;-63
2022/06/23 17:16:53;;;;;;;7.20;3.17;;;;;;;33.63;27.49;98028.66;2618243;54;20037;-62
2022/06/23 17:19:30;;;;;;;8.73;3.00;;;;;;;34.14;26.99;98030.34;2618275;54;20038;-64
2022/06/23 17:22:03;;;;;;;6.35;2.30;;;;;;;34.42;26.81;98027.28;2617862;54;20041;-62
2022/06/23 17:24:38;;;;;;;8.25;2.80;;;;;;;34.86;26.22;98027.50;2618595;39;20446;-64
2022/06/23 17:27:20;;;;;;;8.23;2.97;;;;;;;35.27;25.37;98030.38;2617965;54;20030;-61
2022/06/23 17:29:55;;;;;;;;;;;;;;;35.60;25.64;98035.13;2618683;54;20031;-62
2022/06/23 17:32:40;;;;;;;8.85;2.70;;;;;;;35.79;24.72;98027.81;2618884;54;19950;-62
2022/06/23 17:35:20;;;;;;;10.05;2.60;;;;;;;36.09;24.48;98034.03;2618920;54;20043;-63
2022/06/23 17:37:57;;;;;;;6.80;3.30;;;;;;;36.37;24.40;98030.66;2618859;54;20580;-63
2022/06/23 17:46:08;;;;;;;9.10;2.78;;;;;;;36.54;23.43;98028.44;2619522;39;20503;-65
2022/06/23 17:48:49;;;;;;;7.57;3.00;;;;;;;36.96;22.88;98035.41;2619377;54;20034;-64
2022/06/23 17:51:25;;;;;;;6.25;2.60;;;;;;;36.64;22.70;98022.22;2619295;54;20027;-64
2022/06/23 17:54:07;;;;;;;9.98;3.47;;;;;;;35.98;23.49;98024.88;2619227;54;20569;-64
2022/06/23 17:56:51;;;;;;;6.72;2.90;;;;;;;35.59;24.07;98022.53;2619621;39;20425;-63
2022/06/23 17:59:26;;;;;;;6.93;2.90;;;;;;;35.76;24.14;98018.38;2619413;54;20018;-64
2022/06/23 18:02:06;;;;;;;6.55;2.70;;;;;;;35.86;23.81;98025.94;2618791;54;20034;-64
2022/06/23 18:04:46;;;;;;;8.02;2.80;;;;;;;36.09;23.84;98017.53;2619380;54;20597;-64
2022/06/23 18:07:21;;;;;;;13.40;2.80;;;;;;;36.29;23.83;98018.03;2620959;54;20049;-64
2022/06/23 18:09:58;;;;;;;6.90;3.03;;;;;;;36.30;23.70;98018.84;2620131;54;20033;-64
2022/06/23 18:12:32;;;;;;;6.45;2.80;;;;;;;35.41;24.22;98018.78;2619065;54;20038;-64
2022/06/23 18:15:27;;;;;;;9.35;3.63;;;;;;;34.47;25.42;98016.75;2619093;54;20026;-64
2022/06/23 18:18:03;;;;;;;10.57;2.70;;;;;;;33.96;26.37;98021.78;2618943;54;20553;-64
2022/06/23 18:20:44;;;;;;;10.05;3.67;;;;;;;33.66;26.67;98011.50;2618657;54;20062;-65
2022/06/23 18:23:18;;;;;;;8.45;2.72;;;;;;;33.46;27.24;98016.22;2618259;54;20030;-64
2022/06/23 18:26:02;;;;;;;10.57;3.75;;;;;;;33.10;27.46;98014.72;2618417;54;20041;-65
2022/06/23 18:28:43;;;;;;;11.02;3.35;;;;;;;32.59;28.30;98019.47;2619036;54;20022;-66
2022/06/23 18:31:30;;;;;;;6.75;2.60;;;;;;;32.22;29.21;98017.03;2621161;54;20042;-64
2022/06/23 18:34:09;;;;;;;10.88;3.05;;;;;;;31.96;29.80;98021.09;2622449;54;20031;-65
2022/06/23 18:36:49;;;;;;;7.75;2.85;;;;;;;31.77;29.38;98015.50;2621724;54;20042;-65
2022/06/23 18:39:26;;;;;;;8.45;3.42;;;;;;;31.61;30.20;98011.97;2621840;54;20038;-66
2022/06/23 18:42:05;;;;;;;11.48;3.80;;;;;;;31.40;30.49;98014.94;2621543;54;20031;-65
2022/06/23 18:44:40;;;;;;;8.93;2.95;;;;;;;31.15;31.12;98009.56;2621378;54;20039;-66
2022/06/23 18:47:25;;;;;;;8.20;3.20;;;;;;;31.11;31.06;98010.56;2621733;54;20046;-65
2022/06/23 18:50:01;;;;;;;12.65;3.10;;;;;;;31.00;31.21;98026.66;2621333;54;20069;-66
2022/06/23 18:52:43;;;;;;;12.82;3.38;;;;;;;30.86;31.83;98018.84;2621151;54;20031;-65
2022/06/23 18:55:36;;;;;;;9.82;2.70;;;;;;;30.75;32.36;98015.00;2621016;54;20031;-66
2022/06/23 18:58:22;;;;;;;17.42;4.32;;;;;;;30.70;31.92;98012.47;2620535;47;20027;-66
2022/06/23 19:01:03;;;;;;;10.98;3.35;;;;;;;30.62;32.70;98014.22;2621733;54;20035;-64
2022/06/23 19:03:40;;;;;;;8.77;3.80;;;;;;;30.53;32.85;98018.97;2622391;54;20033;-66
2022/06/23 19:06:23;;;;;;;10.13;3.63;;;;;;;30.31;33.57;98023.78;2622526;54;20035;-65
2022/06/23 19:08:56;;;;;;;10.57;3.00;;;;;;;30.10;33.84;98023.06;2622277;54;20038;-65
2022/06/23 19:11:47;;;;;;;12.68;3.05;;;;;;;29.96;34.13;98019.88;2622142;54;20031;-64
2022/06/23 19:14:34;;;;;;;9.63;3.20;;;;;;;29.88;34.26;98023.50;2622289;54;20037;-65
2022/06/23 19:17:28;;;;;;;12.70;3.08;;;;;;;29.82;34.55;98023.72;2621301;54;20114;-65
2022/06/23 19:20:12;;;;;;;8.88;3.13;;;;;;;29.81;34.95;98029.50;2621604;54;20556;-66
2022/06/23 19:22:52;;;;;;;8.57;3.15;;;;;;;29.75;35.38;98028.91;2621459;54;20046;-65
2022/06/23 19:25:33;;;;;;;10.23;3.38;;;;;;;29.68;35.28;98034.16;2621188;54;20121;-64
2022/06/23 19:28:09;;;;;;;15.38;7.55;;;;;;;29.58;35.64;98031.84;2619453;54;20581;-65
2022/06/23 19:30:51;;;;;;;12.98;5.22;;;;;;;29.46;36.06;98039.94;2619635;54;20034;-65
2022/06/23 19:33:27;;;;;;;31.23;4.57;;;;;;;29.38;36.15;98034.22;2619578;54;20038;-66
2022/06/23 19:36:13;;;;;;;13.57;4.28;;;;;;;29.33;36.78;98036.38;2619084;54;20034;-64
2022/06/23 19:39:01;;;;;;;10.15;3.30;;;;;;;29.21;36.89;98030.88;2619009;54;20039;-65
2022/06/23 19:41:38;;;;;;;14.40;6.18;;;;;;;29.18;37.05;98035.06;2618892;54;20034;-65
2022/06/23 19:44:35;;;;;;;8.40;4.28;;;;;;;29.13;37.49;98037.97;2618655;54;20045;-65
2022/06/23 19:47:13;;;;;;;12.57;4.28;;;;;;;29.04;37.69;98048.16;2619336;54;20072;-65
2022/06/23 19:49:49;;;;;;;11.02;3.90;;;;;;;28.98;37.47;98046.75;2619722;39;20434;-65
2022/06/23 19:52:24;;;;;;;12.45;3.75;;;;;;;28.92;38.17;98042.63;2619049;54;20026;-65
2022/06/23 19:55:05;;;;;;;11.75;4.50;;;;;;;28.83;38.49;98048.13;2619045;54;20031;-64
2022/06/23 19:57:45;;;;;;;7.70;3.45;;;;;;;28.71;38.63;98056.19;2618885;54;20048;-65
2022/06/23 20:00:21;;;;;;;11.85;3.75;;;;;;;28.57;39.29;98059.94;2619268;54;20042;-65
2022/06/23 20:03:09;;;;;;;9.98;4.05;;;;;;;28.49;39.37;98068.94;2619038;54;20053;-63
2022/06/23 20:05:51;;;;;;;9.80;4.10;;;;;;;28.49;39.92;98068.94;2618739;54;20038;-65
2022/06/23 20:08:35;;;;;;;9.52;3.97;;;;;;;28.47;39.71;98076.63;2618301;47;20038;-64